Date,TemperatureHighF,TemperatureAvgF,TemperatureLowF,DewpointHighF,DewpointAvgF,DewpointLowF,HumidityHigh,HumidityAvg,HumidityLow,PressureMaxIn,PressureMinIn,WindSpeedMaxMPH,WindSpeedAvgMPH,GustSpeedMaxMPH,PrecipitationSumIn
2013-6-1,87,80,75,75,71,68,80,75,64,29.81,29.60,19,8,22,0.00
2013-6-2,85,76,66,68,59,53,78,58,34,29.92,29.77,13,4,13,0.00
2013-6-3,89,74,60,65,60,54,83,63,42,29.84,29.61,10,3,10,0.00
2013-6-4,90,79,68,71,66,61,81,67,51,29.79,29.51,15,6,15,0.00
2013-6-5,91,80,72,73,69,65,84,70,52,29.61,29.39,16,4,16,0.02
2013-6-6,78,74,68,70,67,63,88,79,66,29.50,29.34,20,4,20,0.81
2013-6-7,86,74,62,63,60,57,84,64,40,29.49,29.30,11,3,11,0.00
2013-6-8,86,78,74,64,62,61,66,57,48,29.87,29.81,9,4,9,0.00
2013-6-9,89,78,68,73,68,62,89,71,55,29.95,29.86,14,3,14,1.11
2013-6-10,95,82,70,73,69,65,88,66,41,29.96,29.90,13,4,13,0.00
2013-6-11,92,83,74,74,71,66,87,68,51,30.03,29.92,15,6,15,0.00
2013-6-12,93,83,76,74,72,69,88,69,50,30.06,29.92,19,6,19,0.00
2013-6-13,96,85,74,75,72,69,85,66,46,30.05,29.89,12,4,12,0.00
2013-6-14,97,87,75,77,72,68,80,64,46,29.98,29.87,8,2,8,0.00
2013-6-15,93,82,74,76,72,66,86,72,54,30.00,29.88,31,4,31,0.40
2013-6-16,93,83,75,76,72,69,88,70,48,30.00,29.86,12,4,12,0.00
2013-6-17,90,81,69,76,72,65,88,75,62,30.04,29.85,19,4,19,0.55
2013-6-18,82,77,72,73,70,67,86,79,69,29.99,29.86,10,3,10,0.01
2013-6-19,90,79,70,76,71,65,90,76,58,29.99,29.87,12,4,12,0.00
2013-6-20,93,84,76,73,71,68,86,67,47,30.04,29.91,15,6,15,0.00
2013-6-21,93,84,75,74,71,67,84,65,48,30.07,29.95,14,6,16,0.00
2013-6-22,92,84,75,73,70,68,83,65,48,30.04,29.88,17,6,17,0.00
2013-6-23,93,84,75,73,70,66,82,63,46,29.99,29.87,16,7,16,0.00
2013-6-24,93,84,76,73,70,66,82,63,45,30.02,29.88,14,6,16,0.00
2013-6-25,95,86,76,73,70,67,81,61,41,29.98,29.81,18,8,18,0.00
2013-6-26,97,86,76,73,70,64,81,60,43,29.96,29.83,18,7,18,0.00
2013-6-27,99,87,78,74,70,67,75,59,39,29.99,29.83,15,4,15,0.00
2013-6-28,102,88,78,74,69,65,70,54,36,29.92,29.78,14,4,14,0.00
2013-6-29,97,86,76,70,64,61,70,50,32,29.86,29.77,11,4,16,0.00
2013-6-30,91,81,72,63,60,56,71,50,33,29.91,29.78,14,4,14,0.00